Willamette — WDG2204 — position and weather

sailwx.info

Track history (hours):
 
Tides and Currents Weather Stations Pressure Air Temp Water Temp Dewpoint Dewpoint Depression Visibility Wind Speed Wind Dir Waves Ship Positions

Willamette

Owner: Shaver Transportation Company, Portland, OR. More information available from US FCC via Universal Licensing System and Coast Guard Vessel Documentation Center.

Last reported at 2018-Jul-17 04:00 UTC. Time now 2018-Jul-17 04:08 UTC.
Position N 45°38' W 122°42'.

Length 28 m; draft 4.3 m.

Type: Tug. MMSI: 367513230.

Date/timePositionNaut miles runAvg speedWind from/ knotsBaromVisibWave heightAir tempDewpointWater temp
2018-Jul-17 04:00N 45°38' W 122°42'1 1.4
2018-Jul-17 03:30N 45°38' W 122°43'0 0.9
2018-Jul-17 02:59N 45°38' W 122°43'1 2.1
2018-Jul-17 02:31N 45°39' W 122°45'0 0.0
2018-Jul-17 02:00N 45°39' W 122°45'0 0.0
2018-Jul-17 01:28N 45°39' W 122°45'0 0.0
2018-Jul-17 01:00N 45°39' W 122°45'0 0.0
2018-Jul-17 00:30N 45°39' W 122°45'0 0.0
2018-Jul-16 23:30N 45°39' W 122°45'0 0.2
2018-Jul-16 23:00N 45°39' W 122°45'2 4.4
2018-Jul-16 22:30N 45°37' W 122°47'1 1.6
2018-Jul-16 22:00N 45°37' W 122°47'2 4.9
2018-Jul-16 21:30N 45°35' W 122°45'1 2.6
2018-Jul-16 21:00N 45°34' W 122°44'0 0.0
2018-Jul-16 20:30N 45°34' W 122°44'0 0.0
2018-Jul-16 20:00N 45°34' W 122°44'0 0.0
2018-Jul-16 19:30N 45°34' W 122°44'0 0.0
2018-Jul-16 19:00N 45°34' W 122°44'0 0.0
2018-Jul-16 18:30N 45°34' W 122°44'0 0.0
2018-Jul-16 18:00N 45°34' W 122°44'0 0.1
2018-Jul-16 17:30N 45°34' W 122°44'0 0.0
2018-Jul-16 17:00N 45°34' W 122°44'0 0.0
2018-Jul-16 16:30N 45°34' W 122°44'0 0.0
2018-Jul-16 16:00N 45°34' W 122°44'0 0.0
2018-Jul-16 15:30N 45°34' W 122°44'0 0.0
2018-Jul-16 15:00N 45°34' W 122°44'0 0.0
2018-Jul-16 14:30N 45°34' W 122°44'0 0.0
2018-Jul-16 14:00N 45°34' W 122°44'2 3.7
2018-Jul-16 13:30N 45°33' W 122°41'1 1.5
2018-Jul-16 13:00N 45°32' W 122°41'0 0.4
2018-Jul-16 12:30N 45°32' W 122°41'3 6.3
2018-Jul-16 12:00N 45°34' W 122°44'0 0.5
2018-Jul-16 11:30N 45°34' W 122°44'0 0.0
2018-Jul-16 11:00N 45°34' W 122°44'0 0.3
2018-Jul-16 10:31N 45°34' W 122°44'1 1.0
2018-Jul-16 10:01N 45°34' W 122°44'0 0.0
2018-Jul-16 09:30N 45°34' W 122°44'0 0.0
2018-Jul-16 09:01N 45°34' W 122°44'0 0.0
2018-Jul-16 08:30N 45°34' W 122°44'0 0.7
2018-Jul-16 08:01N 45°34' W 122°44'3 6.9
2018-Jul-16 07:31N 45°37' W 122°47'3 5.8
2018-Jul-16 07:00N 45°39' W 122°45'1 1.5
2018-Jul-16 06:30N 45°39' W 122°45'0 0.0
2018-Jul-16 06:01N 45°39' W 122°45'0 0.0
2018-Jul-16 05:31N 45°39' W 122°45'0 0.0
2018-Jul-16 05:00N 45°39' W 122°45'0 0.0
2018-Jul-16 04:30N 45°39' W 122°45'0 0.0
2018-Jul-16 04:00N 45°39' W 122°45'0 0.0
2018-Jul-16 03:30N 45°39' W 122°45'0 0.0
2018-Jul-16 03:00N 45°39' W 122°45'0 0.0
2018-Jul-16 02:30N 45°39' W 122°45'0 0.0
2018-Jul-16 02:01N 45°39' W 122°45'2 3.2
2018-Jul-16 01:30N 45°38' W 122°43'1 1.3
2018-Jul-16 01:00N 45°38' W 122°42'0 0.9
2018-Jul-16 00:30N 45°38' W 122°42'0 0.8
2018-Jul-16 00:00N 45°38' W 122°42'0 0.1
2018-Jul-15 23:30N 45°38' W 122°42'1 2.2
2018-Jul-15 23:00N 45°38' W 122°43'1 2.4
2018-Jul-15 22:30N 45°39' W 122°45'0 0.0
2018-Jul-15 22:00N 45°39' W 122°45'0 0.0
2018-Jul-15 21:30N 45°39' W 122°45'0 0.0
2018-Jul-15 21:01N 45°39' W 122°45'0 0.0
2018-Jul-15 20:30N 45°39' W 122°45'0 0.0
2018-Jul-15 20:00N 45°39' W 122°45'0 0.0
2018-Jul-15 19:30N 45°39' W 122°45'0 0.0
2018-Jul-15 19:00N 45°39' W 122°45'0 0.0
2018-Jul-15 18:30N 45°39' W 122°45'0 0.0
2018-Jul-15 18:00N 45°39' W 122°45'0 0.0
2018-Jul-15 17:30N 45°39' W 122°45'0 0.0
2018-Jul-15 17:00N 45°39' W 122°45'0 0.0
2018-Jul-15 16:31N 45°39' W 122°45'0 0.0
2018-Jul-15 16:00N 45°39' W 122°45'0 0.0
2018-Jul-15 15:30N 45°39' W 122°45'1 1.7
2018-Jul-15 15:00N 45°39' W 122°46'1 2.2
2018-Jul-15 14:30N 45°38' W 122°47'1 2.4
2018-Jul-15 14:00N 45°39' W 122°46'0 0.6
2018-Jul-15 13:29N 45°39' W 122°45'0 0.0
2018-Jul-15 13:00N 45°39' W 122°45'0 0.0
2018-Jul-15 12:30N 45°39' W 122°45'0 0.0
2018-Jul-15 12:00N 45°39' W 122°45'0 0.0
2018-Jul-15 11:31N 45°39' W 122°45'0 0.0
2018-Jul-15 11:00N 45°39' W 122°45'1 1.3
2018-Jul-15 10:30N 45°39' W 122°45'1 2.9
2018-Jul-15 10:00N 45°38' W 122°43'0 0.5
2018-Jul-15 09:30N 45°38' W 122°43'1 1.3
2018-Jul-15 09:00N 45°38' W 122°44'1 1.3
2018-Jul-15 08:30N 45°39' W 122°45'3 5.1
2018-Jul-15 08:01N 45°37' W 122°47'4 7.5
2018-Jul-15 07:30N 45°34' W 122°44'0 0.2
2018-Jul-15 06:59N 45°34' W 122°44'0 0.9
2018-Jul-15 06:30N 45°34' W 122°45'0 0.6
2018-Jul-15 06:01N 45°35' W 122°45'3 5.9
2018-Jul-15 05:30N 45°37' W 122°47'1 2.8
2018-Jul-15 05:00N 45°38' W 122°47'0 0.0
2018-Jul-15 04:30N 45°38' W 122°47'1 2.7
2018-Jul-15 04:00N 45°39' W 122°45'0 0.0
2018-Jul-15 03:30N 45°39' W 122°45'0 0.0
2018-Jul-15 03:00N 45°39' W 122°45'0 0.0
2018-Jul-15 02:30N 45°39' W 122°45'0 0.0
2018-Jul-15 02:00N 45°39' W 122°45'0 0.0
2018-Jul-15 01:31N 45°39' W 122°45'0 0.0
2018-Jul-15 01:00N 45°39' W 122°45'0 0.0
2018-Jul-15 00:30N 45°39' W 122°45'1 2.2
2018-Jul-15 00:01N 45°39' W 122°46'3 3.8
2018-Jul-14 23:13N 45°36' W 122°47'0 0.0
2018-Jul-14 23:01N 45°36' W 122°47'1 2.8
2018-Jul-14 22:30N 45°35' W 122°45'1 1.9
2018-Jul-14 22:00N 45°34' W 122°44'0 0.2
2018-Jul-14 21:30N 45°34' W 122°44'1 1.1
2018-Jul-14 21:00N 45°34' W 122°44'0 0.0
2018-Jul-14 20:29N 45°34' W 122°44'0 0.0
2018-Jul-14 20:00N 45°34' W 122°44'0 0.0
2018-Jul-14 19:30N 45°34' W 122°44'0 0.0
2018-Jul-14 18:59N 45°34' W 122°44'0 0.5
2018-Jul-14 18:30N 45°34' W 122°44'3 6.3
2018-Jul-14 18:01N 45°36' W 122°47'3 5.7
2018-Jul-14 17:30N 45°39' W 122°46'1 1.4
2018-Jul-14 17:00N 45°39' W 122°45'0 0.6
2018-Jul-14 16:30N 45°39' W 122°45'0 0.0
2018-Jul-14 16:00N 45°39' W 122°45'0 0.1
2018-Jul-14 15:30N 45°39' W 122°45'0 0.1
2018-Jul-14 15:00N 45°39' W 122°45'0 0.0
2018-Jul-14 14:30N 45°39' W 122°45'0 0.0
2018-Jul-14 13:29N 45°39' W 122°45'0 0.0
2018-Jul-14 13:00N 45°39' W 122°45'0 0.0
2018-Jul-14 12:30N 45°39' W 122°45'0 0.0
2018-Jul-14 12:01N 45°39' W 122°45'1 2.0
2018-Jul-14 11:30N 45°38' W 122°43'0 0.5
2018-Jul-14 11:01N 45°38' W 122°43'0 0.4
2018-Jul-14 10:30N 45°38' W 122°43'2 3.1
2018-Jul-14 10:00N 45°39' W 122°45'5 6.4
2018-Jul-14 09:15N 45°44' W 122°46'2 8.1
2018-Jul-14 09:00N 45°46' W 122°46'4 7.9
2018-Jul-14 08:30N 45°49' W 122°48'4 7.2
2018-Jul-14 08:00N 45°53' W 122°48'4 7.3
2018-Jul-14 07:30N 45°56' W 122°48'4 7.4
2018-Jul-14 06:59N 45°60' W 122°51'4 7.3
2018-Jul-14 06:30N 46°03' W 122°53'3 5.6
2018-Jul-14 06:00N 46°05' W 122°55'1 1.8
2018-Jul-14 05:31N 46°06' W 122°56'0 0.5
2018-Jul-14 05:00N 46°06' W 122°57'0 0.4
2018-Jul-14 04:30N 46°06' W 122°56'0 0.1
2018-Jul-14 04:00N 46°06' W 122°56'0 0.1
2018-Jul-14 03:26N 46°06' W 122°56'0 0.9
2018-Jul-14 03:00N 46°06' W 122°56'0 0.5
2018-Jul-14 02:30N 46°05' W 122°56'0 0.0
2018-Jul-14 02:00N 46°05' W 122°56'0 0.0
2018-Jul-14 01:30N 46°05' W 122°56'0 0.0
2018-Jul-14 01:00N 46°05' W 122°56'0 0.0
2018-Jul-14 00:30N 46°05' W 122°56'0 0.0
2018-Jul-13 23:49N 46°05' W 122°56'0 0.0
2018-Jul-13 23:30N 46°05' W 122°56'0 0.0
2018-Jul-13 23:00N 46°05' W 122°56'0 0.0
2018-Jul-13 22:30N 46°05' W 122°56'0 0.0
2018-Jul-13 22:00N 46°05' W 122°56'2 3.5
2018-Jul-13 21:30N 46°07' W 122°58'0 0.1
2018-Jul-13 21:00N 46°07' W 122°58'1 1.1
2018-Jul-13 20:16N 46°06' W 122°57'1 3.2
2018-Jul-13 20:00N 46°05' W 122°56'0 0.0
2018-Jul-13 19:30N 46°05' W 122°56'0 0.0
2018-Jul-13 19:00N 46°05' W 122°56'0 0.0
2018-Jul-13 18:31N 46°05' W 122°56'3 5.7
2018-Jul-13 18:00N 46°03' W 122°53'2 3.8
2018-Jul-13 17:30N 46°02' W 122°52'0 0.5
2018-Jul-13 17:00N 46°02' W 122°52'0 0.0
2018-Jul-13 16:30N 46°02' W 122°52'0 0.4
2018-Jul-13 16:00N 46°02' W 122°52'0 0.4
2018-Jul-13 15:31N 46°02' W 122°52'2 3.7
2018-Jul-13 15:00N 46°03' W 122°53'0 0.0
2018-Jul-13 14:31N 46°03' W 122°53'0 0.0
2018-Jul-13 13:30N 46°03' W 122°53'0 0.0
2018-Jul-13 13:00N 46°03' W 122°53'0 0.9
2018-Jul-13 12:30N 46°03' W 122°53'1 1.9
2018-Jul-13 12:01N 46°04' W 122°53'1 3.0
2018-Jul-13 11:30N 46°05' W 122°54'1 2.2
2018-Jul-13 11:00N 46°05' W 122°56'0 0.0
2018-Jul-13 10:30N 46°05' W 122°56'0 0.0
2018-Jul-13 10:00N 46°05' W 122°56'0 0.0
2018-Jul-13 09:30N 46°05' W 122°56'0 0.0
2018-Jul-13 09:00N 46°05' W 122°56'0 0.0
2018-Jul-13 08:30N 46°05' W 122°56'0 0.0
2018-Jul-13 08:00N 46°05' W 122°56'0 0.0
2018-Jul-13 07:31N 46°05' W 122°56'0 0.0
2018-Jul-13 06:59N 46°05' W 122°56'0 0.0
2018-Jul-13 06:30N 46°05' W 122°56'0 0.0
2018-Jul-13 06:00N 46°05' W 122°56'0 0.0
2018-Jul-13 05:31N 46°05' W 122°56'0 0.0
2018-Jul-13 05:00N 46°05' W 122°56'0 0.0
2018-Jul-13 04:30N 46°05' W 122°56'1 1.3
2018-Jul-13 04:00N 46°06' W 122°56'0 0.1
2018-Jul-13 03:30N 46°06' W 122°56'0 0.0
2018-Jul-13 03:00N 46°06' W 122°56'0 0.8
2018-Jul-13 02:30N 46°06' W 122°56'0 0.5
2018-Jul-13 02:00N 46°05' W 122°56'0 0.0
2018-Jul-13 01:30N 46°05' W 122°56'0 0.0
2018-Jul-13 01:01N 46°05' W 122°56'0 0.0
2018-Jul-13 00:31N 46°05' W 122°56'0 0.0
2018-Jul-13 00:00N 46°05' W 122°56'0 0.0
2018-Jul-12 23:30N 46°05' W 122°56'0 0.0
2018-Jul-12 23:00N 46°05' W 122°56'0 0.0
2018-Jul-12 22:30N 46°05' W 122°56'0 0.0
2018-Jul-12 22:00N 46°05' W 122°56'0 0.0
2018-Jul-12 21:30N 46°05' W 122°56'0 0.0
2018-Jul-12 20:59N 46°05' W 122°56'1 1.2
2018-Jul-12 20:31N 46°06' W 122°56'1 1.3
2018-Jul-12 19:37N 46°06' W 122°58'0 3.8
2018-Jul-12 19:30N 46°06' W 122°57'1 1.4
2018-Jul-12 19:00N 46°06' W 122°56'0 0.0
2018-Jul-12 18:30N 46°06' W 122°56'0 0.0
2018-Jul-12 18:01N 46°06' W 122°56'1 0.9
2018-Jul-12 17:22N 46°05' W 122°56'0 0.0
2018-Jul-12 17:00N 46°05' W 122°56'0 0.0
2018-Jul-12 16:30N 46°05' W 122°56'0 0.0
2018-Jul-12 16:00N 46°05' W 122°56'0 0.0
2018-Jul-12 15:30N 46°05' W 122°56'0 0.0
2018-Jul-12 15:01N 46°05' W 122°56'0 0.0
2018-Jul-12 14:30N 46°05' W 122°56'2 3.5
2018-Jul-12 14:00N 46°07' W 122°58'0 0.1
2018-Jul-12 13:30N 46°07' W 122°58'1 1.6
2018-Jul-12 13:00N 46°07' W 122°59'0 0.6
2018-Jul-12 12:18N 46°07' W 122°58'0 0.9
2018-Jul-12 12:00N 46°07' W 122°58'2 4.2
2018-Jul-12 11:30N 46°05' W 122°55'2 1.9
2018-Jul-12 10:35N 46°04' W 122°54'1 6.6
2018-Jul-12 10:31N 46°04' W 122°53'5 6.5
2018-Jul-12 09:48N 45°60' W 122°51'2 6.4
2018-Jul-12 09:30N 45°58' W 122°49'4 6.4
2018-Jul-12 08:54N 45°54' W 122°48'3 7.1
2018-Jul-12 08:31N 45°52' W 122°47'4 7.5
2018-Jul-12 07:58N 45°48' W 122°47'4 8.1
2018-Jul-12 07:30N 45°44' W 122°46'4 8.2
2018-Jul-12 06:59N 45°40' W 122°46'1 2.8
2018-Jul-12 06:30N 45°39' W 122°45'1 2.1
2018-Jul-12 06:00N 45°38' W 122°43'4 7.4
2018-Jul-12 05:30N 45°37' W 122°39'4 7.4
2018-Jul-12 05:00N 45°36' W 122°33'4 7.4
2018-Jul-12 04:24N 45°34' W 122°27'3 7.3
2018-Jul-12 04:00N 45°35' W 122°23'3 6.9
2018-Jul-12 03:30N 45°33' W 122°19'2 3.1
2018-Jul-12 02:48N 45°33' W 122°16'2 6.6
2018-Jul-12 02:30N 45°33' W 122°19'3 5.5
2018-Jul-12 02:00N 45°34' W 122°22'3 5.8
2018-Jul-12 01:30N 45°34' W 122°26'3 6.2
2018-Jul-12 01:00N 45°35' W 122°30'3 6.5
2018-Jul-12 00:30N 45°36' W 122°35'3 6.8
2018-Jul-11 23:59N 45°37' W 122°40'3 7.2
2018-Jul-11 23:30N 45°39' W 122°44'1 1.3
2018-Jul-11 23:01N 45°39' W 122°45'0 0.0
2018-Jul-11 22:30N 45°39' W 122°45'0 0.9
2018-Jul-11 22:01N 45°38' W 122°44'2 3.9
2018-Jul-11 21:30N 45°38' W 122°42'2 4.7
2018-Jul-11 21:00N 45°39' W 122°45'0 0.1
2018-Jul-11 20:30N 45°39' W 122°45'0 0.3
2018-Jul-11 20:00N 45°39' W 122°45'0 0.1
2018-Jul-11 19:31N 45°39' W 122°45'1 1.7
2018-Jul-11 19:00N 45°39' W 122°46'3 6.7
2018-Jul-11 18:30N 45°43' W 122°46'3 6.7
2018-Jul-11 18:00N 45°46' W 122°46'3 6.7
2018-Jul-11 17:31N 45°49' W 122°48'3 6.4
2018-Jul-11 17:00N 45°52' W 122°47'3 6.2
2018-Jul-11 16:30N 45°55' W 122°48'3 6.3
2018-Jul-11 16:00N 45°58' W 122°50'3 6.5
2018-Jul-11 15:30N 46°01' W 122°52'3 5.9
2018-Jul-11 15:01N 46°04' W 122°53'2 4.3
2018-Jul-11 14:30N 46°05' W 122°55'0 0.0
2018-Jul-11 14:00N 46°05' W 122°55'1 2.0
2018-Jul-11 13:30N 46°06' W 122°56'0 0.3
2018-Jul-11 13:00N 46°06' W 122°56'1 1.9
2018-Jul-11 12:30N 46°05' W 122°55'1 2.1
2018-Jul-11 12:01N 46°06' W 122°56'0 0.2
2018-Jul-11 11:30N 46°06' W 122°57'0 0.1
2018-Jul-11 11:00N 46°06' W 122°57'0 0.3
2018-Jul-11 10:19N 46°06' W 122°56'0 0.4
2018-Jul-11 10:00N 46°06' W 122°57'1 2.7
2018-Jul-11 09:31N 46°07' W 122°58'1 1.0
2018-Jul-11 09:00N 46°06' W 122°58'2 3.7
2018-Jul-11 08:31N 46°05' W 122°55'0 0.6
2018-Jul-11 08:00N 46°05' W 122°56'0 0.2
2018-Jul-11 07:30N 46°05' W 122°56'0 0.0
2018-Jul-11 06:59N 46°05' W 122°56'0 0.0
2018-Jul-11 06:30N 46°05' W 122°56'0 0.0
2018-Jul-11 06:01N 46°05' W 122°56'0 0.0
2018-Jul-11 05:30N 46°05' W 122°56'0 0.0
2018-Jul-11 05:00N 46°05' W 122°56'0 0.0
2018-Jul-11 04:30N 46°05' W 122°56'0 0.0
2018-Jul-11 04:00N 46°05' W 122°56'0 0.0
2018-Jul-11 03:31N 46°05' W 122°56'0 0.0
2018-Jul-11 03:00N 46°05' W 122°56'0 0.0
2018-Jul-11 02:30N 46°05' W 122°56'0 0.0
2018-Jul-11 02:00N 46°05' W 122°56'0 0.0
2018-Jul-11 01:31N 46°05' W 122°56'1 1.3
2018-Jul-11 01:01N 46°06' W 122°56'1 2.0
2018-Jul-11 00:30N 46°05' W 122°55'1 2.0
2018-Jul-11 00:01N 46°06' W 122°56'1 1.3
2018-Jul-10 23:30N 46°05' W 122°56'0 0.1
2018-Jul-10 23:00N 46°05' W 122°56'0 0.0
2018-Jul-10 22:30N 46°05' W 122°56'0 0.0
2018-Jul-10 22:00N 46°05' W 122°56'0 0.0
2018-Jul-10 21:30N 46°05' W 122°56'0 0.0
2018-Jul-10 21:00N 46°05' W 122°56'0 0.0
2018-Jul-10 20:30N 46°05' W 122°56'0 0.0
2018-Jul-10 20:01N 46°05' W 122°56'0 0.0
2018-Jul-10 19:30N 46°05' W 122°56'0 0.0
2018-Jul-10 19:00N 46°05' W 122°56'0 0.0
2018-Jul-10 18:30N 46°05' W 122°56'0 0.0
2018-Jul-10 18:01N 46°05' W 122°56'0 0.0
2018-Jul-10 17:30N 46°05' W 122°56'0 0.0
2018-Jul-10 17:00N 46°05' W 122°56'0 0.0
2018-Jul-10 16:11N 46°05' W 122°56'0 0.0
2018-Jul-10 16:01N 46°05' W 122°56'0 0.0
2018-Jul-10 15:30N 46°05' W 122°56'0 0.7
2018-Jul-10 15:00N 46°05' W 122°55'1 2.0
2018-Jul-10 14:30N 46°06' W 122°56'1 2.0
2018-Jul-10 14:00N 46°05' W 122°55'1 2.0
2018-Jul-10 13:30N 46°06' W 122°56'4 8.0
2018-Jul-10 13:00N 46°03' W 122°53'510.8
2018-Jul-10 12:31N 45°58' W 122°49'510.6
2018-Jul-10 12:00N 45°53' W 122°48'510.2
2018-Jul-10 11:31N 45°48' W 122°47'510.0
2018-Jul-10 10:59N 45°43' W 122°46'4 8.8
2018-Jul-10 10:30N 45°39' W 122°45'0 0.0
2018-Jul-10 09:55N 45°39' W 122°45'0 0.2
2018-Jul-10 09:26N 45°39' W 122°45'0 0.0
2018-Jul-10 09:00N 45°39' W 122°45'0 0.4
2018-Jul-10 08:30N 45°39' W 122°45'0 0.4
2018-Jul-10 07:51N 45°39' W 122°45'2 6.9
2018-Jul-10 07:30N 45°41' W 122°46'4 8.1
2018-Jul-10 06:59N 45°45' W 122°46'4 7.9
2018-Jul-10 06:30N 45°48' W 122°48'4 7.5
2018-Jul-10 06:01N 45°52' W 122°47'4 7.4
2018-Jul-10 05:30N 45°56' W 122°48'4 7.2
2018-Jul-10 05:00N 45°59' W 122°51'5 7.2
2018-Jul-10 04:15N 46°04' W 122°53'2 6.6
2018-Jul-10 04:00N 46°05' W 122°55'3 5.8
2018-Jul-10 03:30N 46°03' W 122°53'0 0.5
2018-Jul-10 03:00N 46°03' W 122°53'0 0.6
2018-Jul-10 02:30N 46°03' W 122°53'0 0.0
2018-Jul-10 02:00N 46°03' W 122°53'2 4.3
2018-Jul-10 01:30N 46°05' W 122°54'1 2.4
2018-Jul-10 01:00N 46°05' W 122°56'0 0.3
2018-Jul-10 00:30N 46°05' W 122°56'0 0.4
2018-Jul-10 00:00N 46°05' W 122°55'1 1.9
2018-Jul-09 23:30N 46°06' W 122°56'0 0.1
2018-Jul-09 23:00N 46°06' W 122°56'0 0.1
2018-Jul-09 22:30N 46°06' W 122°56'0 0.6
2018-Jul-09 22:01N 46°06' W 122°56'0 0.0
2018-Jul-09 21:07N 46°06' W 122°56'0 0.1
2018-Jul-09 21:00N 46°06' W 122°56'0 0.5
2018-Jul-09 20:30N 46°06' W 122°56'1 1.6
2018-Jul-09 20:00N 46°05' W 122°56'0 0.0
2018-Jul-09 19:31N 46°05' W 122°56'0 0.0
2018-Jul-09 19:01N 46°05' W 122°56'0 0.0
2018-Jul-09 18:30N 46°05' W 122°56'0 0.0
2018-Jul-09 18:01N 46°05' W 122°56'0 0.0
2018-Jul-09 17:30N 46°05' W 122°56'0 0.0
2018-Jul-09 17:00N 46°05' W 122°56'0 0.0
2018-Jul-09 16:30N 46°05' W 122°56'0 0.0
2018-Jul-09 16:00N 46°05' W 122°56'0 0.0
2018-Jul-09 15:30N 46°05' W 122°56'0 0.0
2018-Jul-09 15:00N 46°05' W 122°56'3 6.3
2018-Jul-09 14:30N 46°03' W 122°53'1 2.4
2018-Jul-09 14:00N 46°02' W 122°52'1 1.7
2018-Jul-09 13:30N 46°02' W 122°53'1 1.3
2018-Jul-09 13:00N 46°03' W 122°53'1 2.8
2018-Jul-09 12:30N 46°04' W 122°54'2 3.4
2018-Jul-09 12:00N 46°03' W 122°53'0 0.4
2018-Jul-09 11:31N 46°03' W 122°53'0 0.0
2018-Jul-09 11:00N 46°03' W 122°53'2 3.2
2018-Jul-09 10:30N 46°01' W 122°52'510.2
2018-Jul-09 10:00N 45°57' W 122°48'5 9.7
2018-Jul-09 09:31N 45°52' W 122°47'5 9.0
2018-Jul-09 09:01N 45°47' W 122°47'4 8.9
2018-Jul-09 08:30N 45°43' W 122°46'4 8.2
2018-Jul-09 08:00N 45°39' W 122°45'2 4.9
2018-Jul-09 07:31N 45°38' W 122°42'1 1.5
2018-Jul-09 06:59N 45°38' W 122°42'2 3.3
2018-Jul-09 06:30N 45°39' W 122°45'0 0.2
2018-Jul-09 06:00N 45°39' W 122°45'0 0.1
2018-Jul-09 05:25N 45°39' W 122°45'0 0.0
2018-Jul-09 05:01N 45°39' W 122°45'0 0.0
2018-Jul-09 04:20N 45°39' W 122°45'0 0.0
2018-Jul-09 04:00N 45°39' W 122°45'0 0.0
2018-Jul-09 03:30N 45°39' W 122°45'1 0.9
2018-Jul-09 02:54N 45°39' W 122°45'0 0.5
2018-Jul-09 02:30N 45°39' W 122°46'1 1.2
2018-Jul-09 02:00N 45°39' W 122°45'0 0.2
2018-Jul-09 01:30N 45°39' W 122°45'0 0.0
2018-Jul-09 01:01N 45°39' W 122°45'1 1.7
2018-Jul-09 00:30N 45°38' W 122°44'1 1.6
2018-Jul-09 00:00N 45°39' W 122°45'0 0.2
2018-Jul-08 23:30N 45°39' W 122°45'0 0.0
2018-Jul-08 23:00N 45°39' W 122°45'0 0.6
2018-Jul-08 22:30N 45°39' W 122°45'1 2.1
2018-Jul-08 22:00N 45°38' W 122°44'0 1.0
2018-Jul-08 21:31N 45°38' W 122°45'0 0.6
2018-Jul-08 21:00N 45°39' W 122°45'0 0.0
2018-Jul-08 20:30N 45°39' W 122°45'3 6.5
2018-Jul-08 20:00N 45°42' W 122°46'3 7.1
2018-Jul-08 19:30N 45°45' W 122°46'4 7.1
2018-Jul-08 19:00N 45°48' W 122°47'4 6.7
2018-Jul-08 18:21N 45°53' W 122°48'2 6.9
2018-Jul-08 18:00N 45°55' W 122°48'3 6.6
2018-Jul-08 17:31N 45°58' W 122°50'1 1.5
2018-Jul-08 17:00N 45°59' W 122°50'5 7.6
2018-Jul-08 16:25N 45°55' W 122°48'410.0
2018-Jul-08 16:00N 45°51' W 122°47'5 9.5
2018-Jul-08 15:30N 45°46' W 122°46'5 9.9
2018-Jul-08 15:00N 45°41' W 122°47'4 7.2
2018-Jul-08 14:30N 45°38' W 122°43'0 1.0
2018-Jul-08 14:00N 45°38' W 122°42'0 0.1
2018-Jul-08 13:30N 45°38' W 122°42'0 0.5
2018-Jul-08 13:00N 45°38' W 122°42'0 0.3
2018-Jul-08 12:30N 45°38' W 122°43'1 2.2
2018-Jul-08 11:50N 45°39' W 122°44'0 0.5
2018-Jul-08 11:23N 45°39' W 122°45'0 0.0
2018-Jul-08 11:00N 45°39' W 122°45'0 0.0
2018-Jul-08 10:30N 45°39' W 122°45'0 0.0
2018-Jul-08 10:00N 45°39' W 122°45'0 0.0
2018-Jul-08 09:31N 45°39' W 122°45'0 0.0
2018-Jul-08 09:00N 45°39' W 122°45'0 0.0
2018-Jul-08 08:31N 45°39' W 122°45'0 0.0
2018-Jul-08 08:00N 45°39' W 122°45'0 0.0
2018-Jul-08 07:31N 45°39' W 122°45'0 0.0
2018-Jul-08 06:59N 45°39' W 122°45'0 0.0
2018-Jul-08 06:31N 45°39' W 122°45'0 0.0
2018-Jul-08 06:00N 45°39' W 122°45'0 0.2
2018-Jul-08 05:30N 45°39' W 122°45'0 0.2
2018-Jul-08 05:00N 45°39' W 122°45'1 2.9
2018-Jul-08 04:30N 45°38' W 122°47'3 7.0
2018-Jul-08 04:00N 45°35' W 122°46'2 3.8
2018-Jul-08 03:30N 45°34' W 122°44'4 4.6
2018-Jul-08 02:43N 45°36' W 122°47'1 7.0
2018-Jul-08 02:30N 45°38' W 122°47'2 4.2
2018-Jul-08 02:00N 45°38' W 122°44'0 0.7
2018-Jul-08 01:31N 45°38' W 122°45'1 2.1
2018-Jul-08 01:00N 45°38' W 122°43'0 0.7
2018-Jul-08 00:30N 45°38' W 122°43'2 3.5
2018-Jul-08 00:01N 45°39' W 122°46'3 7.0
2018-Jul-07 23:30N 45°43' W 122°46'5 6.9
2018-Jul-07 22:44N 45°48' W 122°47'2 6.7
2018-Jul-07 22:26N 45°50' W 122°47'3 6.6
2018-Jul-07 22:01N 45°53' W 122°48'3 6.8
2018-Jul-07 21:31N 45°56' W 122°48'3 6.3
2018-Jul-07 21:00N 45°59' W 122°50'1 1.5
2018-Jul-07 20:30N 45°60' W 122°51'3 6.2
2018-Jul-07 20:00N 46°03' W 122°53'0 0.0
2018-Jul-07 19:31N 46°03' W 122°53'4 5.0
2018-Jul-07 18:48N 45°59' W 122°50'0 0.0
2018-Jul-07 18:31N 45°59' W 122°50'0 0.0
2018-Jul-07 18:01N 45°59' W 122°50'0 0.0
2018-Jul-07 17:30N 45°59' W 122°50'0 0.0
2018-Jul-07 17:01N 45°59' W 122°50'0 0.0
2018-Jul-07 16:31N 45°59' W 122°50'0 0.0
2018-Jul-07 15:56N 45°59' W 122°50'0 0.0
2018-Jul-07 15:30N 45°59' W 122°50'0 0.0
2018-Jul-07 15:00N 45°59' W 122°50'0 0.0
2018-Jul-07 14:30N 45°59' W 122°50'0 0.0
2018-Jul-07 14:01N 45°59' W 122°50'0 0.0
2018-Jul-07 12:48N 45°59' W 122°50'0 0.2
2018-Jul-07 12:30N 45°59' W 122°50'0 0.1
2018-Jul-07 12:00N 45°59' W 122°50'0 0.6
2018-Jul-07 11:30N 45°59' W 122°50'0 0.0
2018-Jul-07 11:01N 45°59' W 122°50'0 0.0
2018-Jul-07 10:30N 45°59' W 122°50'0 0.0
2018-Jul-07 10:00N 45°59' W 122°50'0 0.0
2018-Jul-07 09:30N 45°59' W 122°50'0 0.0
2018-Jul-07 09:01N 45°59' W 122°50'1 1.5
2018-Jul-07 08:30N 45°60' W 122°51'2 4.3
2018-Jul-07 08:00N 46°02' W 122°52'0 0.1
2018-Jul-07 07:30N 46°02' W 122°52'0 0.1
2018-Jul-07 06:59N 46°02' W 122°52'0 0.1
2018-Jul-07 06:31N 46°02' W 122°52'0 0.0
2018-Jul-07 06:00N 46°02' W 122°52'0 0.1
2018-Jul-07 05:31N 46°02' W 122°52'0 0.1
2018-Jul-07 05:01N 46°02' W 122°52'0 0.4
2018-Jul-07 04:30N 46°02' W 122°52'  
Track history (hours):
 
Tides and Currents Weather Stations Pressure Air Temp Water Temp Dewpoint Dewpoint Depression Visibility Wind Speed Wind Dir Waves Ship Positions

Willamette

Owner: Shaver Transportation Company, Portland, OR. More information available from US FCC via Universal Licensing System and Coast Guard Vessel Documentation Center.

Last reported at 2018-Jul-17 04:00 UTC. Time now 2018-Jul-17 04:08 UTC.
Position N 45°38' W 122°42'.

Length 28 m; draft 4.3 m.

Type: Tug. MMSI: 367513230.

Date/timePositionNaut miles runAvg speedWind from/ knotsBaromVisibWave heightAir tempDewpointWater temp
2018-Jul-17 04:00N 45°38' W 122°42'1 1.4
2018-Jul-17 03:30N 45°38' W 122°43'0 0.9
2018-Jul-17 02:59N 45°38' W 122°43'1 2.1
2018-Jul-17 02:31N 45°39' W 122°45'0 0.0
2018-Jul-17 02:00N 45°39' W 122°45'0 0.0
2018-Jul-17 01:28N 45°39' W 122°45'0 0.0
2018-Jul-17 01:00N 45°39' W 122°45'0 0.0
2018-Jul-17 00:30N 45°39' W 122°45'0 0.0
2018-Jul-16 23:30N 45°39' W 122°45'0 0.2
2018-Jul-16 23:00N 45°39' W 122°45'2 4.4
2018-Jul-16 22:30N 45°37' W 122°47'1 1.6
2018-Jul-16 22:00N 45°37' W 122°47'2 4.9
2018-Jul-16 21:30N 45°35' W 122°45'1 2.6
2018-Jul-16 21:00N 45°34' W 122°44'0 0.0
2018-Jul-16 20:30N 45°34' W 122°44'0 0.0
2018-Jul-16 20:00N 45°34' W 122°44'0 0.0
2018-Jul-16 19:30N 45°34' W 122°44'0 0.0
2018-Jul-16 19:00N 45°34' W 122°44'0 0.0
2018-Jul-16 18:30N 45°34' W 122°44'0 0.0
2018-Jul-16 18:00N 45°34' W 122°44'0 0.1
2018-Jul-16 17:30N 45°34' W 122°44'0 0.0
2018-Jul-16 17:00N 45°34' W 122°44'0 0.0
2018-Jul-16 16:30N 45°34' W 122°44'0 0.0
2018-Jul-16 16:00N 45°34' W 122°44'0 0.0
2018-Jul-16 15:30N 45°34' W 122°44'0 0.0
2018-Jul-16 15:00N 45°34' W 122°44'0 0.0
2018-Jul-16 14:30N 45°34' W 122°44'0 0.0
2018-Jul-16 14:00N 45°34' W 122°44'2 3.7
2018-Jul-16 13:30N 45°33' W 122°41'1 1.5
2018-Jul-16 13:00N 45°32' W 122°41'0 0.4
2018-Jul-16 12:30N 45°32' W 122°41'3 6.3
2018-Jul-16 12:00N 45°34' W 122°44'0 0.5
2018-Jul-16 11:30N 45°34' W 122°44'0 0.0
2018-Jul-16 11:00N 45°34' W 122°44'0 0.3
2018-Jul-16 10:31N 45°34' W 122°44'1 1.0
2018-Jul-16 10:01N 45°34' W 122°44'0 0.0
2018-Jul-16 09:30N 45°34' W 122°44'0 0.0
2018-Jul-16 09:01N 45°34' W 122°44'0 0.0
2018-Jul-16 08:30N 45°34' W 122°44'0 0.7
2018-Jul-16 08:01N 45°34' W 122°44'3 6.9
2018-Jul-16 07:31N 45°37' W 122°47'3 5.8
2018-Jul-16 07:00N 45°39' W 122°45'1 1.5
2018-Jul-16 06:30N 45°39' W 122°45'0 0.0
2018-Jul-16 06:01N 45°39' W 122°45'0 0.0
2018-Jul-16 05:31N 45°39' W 122°45'0 0.0
2018-Jul-16 05:00N 45°39' W 122°45'0 0.0
2018-Jul-16 04:30N 45°39' W 122°45'0 0.0
2018-Jul-16 04:00N 45°39' W 122°45'0 0.0
2018-Jul-16 03:30N 45°39' W 122°45'0 0.0
2018-Jul-16 03:00N 45°39' W 122°45'0 0.0
2018-Jul-16 02:30N 45°39' W 122°45'0 0.0
2018-Jul-16 02:01N 45°39' W 122°45'2 3.2
2018-Jul-16 01:30N 45°38' W 122°43'1 1.3
2018-Jul-16 01:00N 45°38' W 122°42'0 0.9
2018-Jul-16 00:30N 45°38' W 122°42'0 0.8
2018-Jul-16 00:00N 45°38' W 122°42'0 0.1
2018-Jul-15 23:30N 45°38' W 122°42'1 2.2
2018-Jul-15 23:00N 45°38' W 122°43'1 2.4
2018-Jul-15 22:30N 45°39' W 122°45'0 0.0
2018-Jul-15 22:00N 45°39' W 122°45'0 0.0
2018-Jul-15 21:30N 45°39' W 122°45'0 0.0
2018-Jul-15 21:01N 45°39' W 122°45'0 0.0
2018-Jul-15 20:30N 45°39' W 122°45'0 0.0
2018-Jul-15 20:00N 45°39' W 122°45'0 0.0
2018-Jul-15 19:30N 45°39' W 122°45'0 0.0
2018-Jul-15 19:00N 45°39' W 122°45'0 0.0
2018-Jul-15 18:30N 45°39' W 122°45'0 0.0
2018-Jul-15 18:00N 45°39' W 122°45'0 0.0
2018-Jul-15 17:30N 45°39' W 122°45'0 0.0
2018-Jul-15 17:00N 45°39' W 122°45'0 0.0
2018-Jul-15 16:31N 45°39' W 122°45'0 0.0
2018-Jul-15 16:00N 45°39' W 122°45'0 0.0
2018-Jul-15 15:30N 45°39' W 122°45'1 1.7
2018-Jul-15 15:00N 45°39' W 122°46'1 2.2
2018-Jul-15 14:30N 45°38' W 122°47'1 2.4
2018-Jul-15 14:00N 45°39' W 122°46'0 0.6
2018-Jul-15 13:29N 45°39' W 122°45'0 0.0
2018-Jul-15 13:00N 45°39' W 122°45'0 0.0
2018-Jul-15 12:30N 45°39' W 122°45'0 0.0
2018-Jul-15 12:00N 45°39' W 122°45'0 0.0
2018-Jul-15 11:31N 45°39' W 122°45'0 0.0
2018-Jul-15 11:00N 45°39' W 122°45'1 1.3
2018-Jul-15 10:30N 45°39' W 122°45'1 2.9
2018-Jul-15 10:00N 45°38' W 122°43'0 0.5
2018-Jul-15 09:30N 45°38' W 122°43'1 1.3
2018-Jul-15 09:00N 45°38' W 122°44'1 1.3
2018-Jul-15 08:30N 45°39' W 122°45'3 5.1
2018-Jul-15 08:01N 45°37' W 122°47'4 7.5
2018-Jul-15 07:30N 45°34' W 122°44'0 0.2
2018-Jul-15 06:59N 45°34' W 122°44'0 0.9
2018-Jul-15 06:30N 45°34' W 122°45'0 0.6
2018-Jul-15 06:01N 45°35' W 122°45'3 5.9
2018-Jul-15 05:30N 45°37' W 122°47'1 2.8
2018-Jul-15 05:00N 45°38' W 122°47'0 0.0
2018-Jul-15 04:30N 45°38' W 122°47'1 2.7
2018-Jul-15 04:00N 45°39' W 122°45'0 0.0
2018-Jul-15 03:30N 45°39' W 122°45'0 0.0
2018-Jul-15 03:00N 45°39' W 122°45'0 0.0
2018-Jul-15 02:30N 45°39' W 122°45'0 0.0
2018-Jul-15 02:00N 45°39' W 122°45'0 0.0
2018-Jul-15 01:31N 45°39' W 122°45'0 0.0
2018-Jul-15 01:00N 45°39' W 122°45'0 0.0
2018-Jul-15 00:30N 45°39' W 122°45'1 2.2
2018-Jul-15 00:01N 45°39' W 122°46'3 3.8
2018-Jul-14 23:13N 45°36' W 122°47'0 0.0
2018-Jul-14 23:01N 45°36' W 122°47'1 2.8
2018-Jul-14 22:30N 45°35' W 122°45'1 1.9
2018-Jul-14 22:00N 45°34' W 122°44'0 0.2
2018-Jul-14 21:30N 45°34' W 122°44'1 1.1
2018-Jul-14 21:00N 45°34' W 122°44'0 0.0
2018-Jul-14 20:29N 45°34' W 122°44'0 0.0
2018-Jul-14 20:00N 45°34' W 122°44'0 0.0
2018-Jul-14 19:30N 45°34' W 122°44'0 0.0
2018-Jul-14 18:59N 45°34' W 122°44'0 0.5
2018-Jul-14 18:30N 45°34' W 122°44'3 6.3
2018-Jul-14 18:01N 45°36' W 122°47'3 5.7
2018-Jul-14 17:30N 45°39' W 122°46'1 1.4
2018-Jul-14 17:00N 45°39' W 122°45'0 0.6
2018-Jul-14 16:30N 45°39' W 122°45'0 0.0
2018-Jul-14 16:00N 45°39' W 122°45'0 0.1
2018-Jul-14 15:30N 45°39' W 122°45'0 0.1
2018-Jul-14 15:00N 45°39' W 122°45'0 0.0
2018-Jul-14 14:30N 45°39' W 122°45'0 0.0
2018-Jul-14 13:29N 45°39' W 122°45'0 0.0
2018-Jul-14 13:00N 45°39' W 122°45'0 0.0
2018-Jul-14 12:30N 45°39' W 122°45'0 0.0
2018-Jul-14 12:01N 45°39' W 122°45'1 2.0
2018-Jul-14 11:30N 45°38' W 122°43'0 0.5
2018-Jul-14 11:01N 45°38' W 122°43'0 0.4
2018-Jul-14 10:30N 45°38' W 122°43'2 3.1
2018-Jul-14 10:00N 45°39' W 122°45'5 6.4
2018-Jul-14 09:15N 45°44' W 122°46'2 8.1
2018-Jul-14 09:00N 45°46' W 122°46'4 7.9
2018-Jul-14 08:30N 45°49' W 122°48'4 7.2
2018-Jul-14 08:00N 45°53' W 122°48'4 7.3
2018-Jul-14 07:30N 45°56' W 122°48'4 7.4
2018-Jul-14 06:59N 45°60' W 122°51'4 7.3
2018-Jul-14 06:30N 46°03' W 122°53'3 5.6
2018-Jul-14 06:00N 46°05' W 122°55'1 1.8
2018-Jul-14 05:31N 46°06' W 122°56'0 0.5
2018-Jul-14 05:00N 46°06' W 122°57'0 0.4
2018-Jul-14 04:30N 46°06' W 122°56'0 0.1
2018-Jul-14 04:00N 46°06' W 122°56'0 0.1
2018-Jul-14 03:26N 46°06' W 122°56'0 0.9
2018-Jul-14 03:00N 46°06' W 122°56'0 0.5
2018-Jul-14 02:30N 46°05' W 122°56'0 0.0
2018-Jul-14 02:00N 46°05' W 122°56'0 0.0
2018-Jul-14 01:30N 46°05' W 122°56'0 0.0
2018-Jul-14 01:00N 46°05' W 122°56'0 0.0
2018-Jul-14 00:30N 46°05' W 122°56'0 0.0
2018-Jul-13 23:49N 46°05' W 122°56'0 0.0
2018-Jul-13 23:30N 46°05' W 122°56'0 0.0
2018-Jul-13 23:00N 46°05' W 122°56'0 0.0
2018-Jul-13 22:30N 46°05' W 122°56'0 0.0
2018-Jul-13 22:00N 46°05' W 122°56'2 3.5
2018-Jul-13 21:30N 46°07' W 122°58'0 0.1
2018-Jul-13 21:00N 46°07' W 122°58'1 1.1
2018-Jul-13 20:16N 46°06' W 122°57'1 3.2
2018-Jul-13 20:00N 46°05' W 122°56'0 0.0
2018-Jul-13 19:30N 46°05' W 122°56'0 0.0
2018-Jul-13 19:00N 46°05' W 122°56'0 0.0
2018-Jul-13 18:31N 46°05' W 122°56'3 5.7
2018-Jul-13 18:00N 46°03' W 122°53'2 3.8
2018-Jul-13 17:30N 46°02' W 122°52'0 0.5
2018-Jul-13 17:00N 46°02' W 122°52'0 0.0
2018-Jul-13 16:30N 46°02' W 122°52'0 0.4
2018-Jul-13 16:00N 46°02' W 122°52'0 0.4
2018-Jul-13 15:31N 46°02' W 122°52'2 3.7
2018-Jul-13 15:00N 46°03' W 122°53'0 0.0
2018-Jul-13 14:31N 46°03' W 122°53'0 0.0
2018-Jul-13 13:30N 46°03' W 122°53'0 0.0
2018-Jul-13 13:00N 46°03' W 122°53'0 0.9
2018-Jul-13 12:30N 46°03' W 122°53'1 1.9
2018-Jul-13 12:01N 46°04' W 122°53'1 3.0
2018-Jul-13 11:30N 46°05' W 122°54'1 2.2
2018-Jul-13 11:00N 46°05' W 122°56'0 0.0
2018-Jul-13 10:30N 46°05' W 122°56'0 0.0
2018-Jul-13 10:00N 46°05' W 122°56'0 0.0
2018-Jul-13 09:30N 46°05' W 122°56'0 0.0
2018-Jul-13 09:00N 46°05' W 122°56'0 0.0
2018-Jul-13 08:30N 46°05' W 122°56'0 0.0
2018-Jul-13 08:00N 46°05' W 122°56'0 0.0
2018-Jul-13 07:31N 46°05' W 122°56'0 0.0
2018-Jul-13 06:59N 46°05' W 122°56'0 0.0
2018-Jul-13 06:30N 46°05' W 122°56'0 0.0
2018-Jul-13 06:00N 46°05' W 122°56'0 0.0
2018-Jul-13 05:31N 46°05' W 122°56'0 0.0
2018-Jul-13 05:00N 46°05' W 122°56'0 0.0
2018-Jul-13 04:30N 46°05' W 122°56'1 1.3
2018-Jul-13 04:00N 46°06' W 122°56'0 0.1
2018-Jul-13 03:30N 46°06' W 122°56'0 0.0
2018-Jul-13 03:00N 46°06' W 122°56'0 0.8
2018-Jul-13 02:30N 46°06' W 122°56'0 0.5
2018-Jul-13 02:00N 46°05' W 122°56'0 0.0
2018-Jul-13 01:30N 46°05' W 122°56'0 0.0
2018-Jul-13 01:01N 46°05' W 122°56'0 0.0
2018-Jul-13 00:31N 46°05' W 122°56'0 0.0
2018-Jul-13 00:00N 46°05' W 122°56'0 0.0
2018-Jul-12 23:30N 46°05' W 122°56'0 0.0
2018-Jul-12 23:00N 46°05' W 122°56'0 0.0
2018-Jul-12 22:30N 46°05' W 122°56'0 0.0
2018-Jul-12 22:00N 46°05' W 122°56'0 0.0
2018-Jul-12 21:30N 46°05' W 122°56'0 0.0
2018-Jul-12 20:59N 46°05' W 122°56'1 1.2
2018-Jul-12 20:31N 46°06' W 122°56'1 1.3
2018-Jul-12 19:37N 46°06' W 122°58'0 3.8
2018-Jul-12 19:30N 46°06' W 122°57'1 1.4
2018-Jul-12 19:00N 46°06' W 122°56'0 0.0
2018-Jul-12 18:30N 46°06' W 122°56'0 0.0
2018-Jul-12 18:01N 46°06' W 122°56'1 0.9
2018-Jul-12 17:22N 46°05' W 122°56'0 0.0
2018-Jul-12 17:00N 46°05' W 122°56'0 0.0
2018-Jul-12 16:30N 46°05' W 122°56'0 0.0
2018-Jul-12 16:00N 46°05' W 122°56'0 0.0
2018-Jul-12 15:30N 46°05' W 122°56'0 0.0
2018-Jul-12 15:01N 46°05' W 122°56'0 0.0
2018-Jul-12 14:30N 46°05' W 122°56'2 3.5
2018-Jul-12 14:00N 46°07' W 122°58'0 0.1
2018-Jul-12 13:30N 46°07' W 122°58'1 1.6
2018-Jul-12 13:00N 46°07' W 122°59'0 0.6
2018-Jul-12 12:18N 46°07' W 122°58'0 0.9
2018-Jul-12 12:00N 46°07' W 122°58'2 4.2
2018-Jul-12 11:30N 46°05' W 122°55'2 1.9
2018-Jul-12 10:35N 46°04' W 122°54'1 6.6
2018-Jul-12 10:31N 46°04' W 122°53'5 6.5
2018-Jul-12 09:48N 45°60' W 122°51'2 6.4
2018-Jul-12 09:30N 45°58' W 122°49'4 6.4
2018-Jul-12 08:54N 45°54' W 122°48'3 7.1
2018-Jul-12 08:31N 45°52' W 122°47'4 7.5
2018-Jul-12 07:58N 45°48' W 122°47'4 8.1
2018-Jul-12 07:30N 45°44' W 122°46'4 8.2
2018-Jul-12 06:59N 45°40' W 122°46'1 2.8
2018-Jul-12 06:30N 45°39' W 122°45'1 2.1
2018-Jul-12 06:00N 45°38' W 122°43'4 7.4
2018-Jul-12 05:30N 45°37' W 122°39'4 7.4
2018-Jul-12 05:00N 45°36' W 122°33'4 7.4
2018-Jul-12 04:24N 45°34' W 122°27'3 7.3
2018-Jul-12 04:00N 45°35' W 122°23'3 6.9
2018-Jul-12 03:30N 45°33' W 122°19'2 3.1
2018-Jul-12 02:48N 45°33' W 122°16'2 6.6
2018-Jul-12 02:30N 45°33' W 122°19'3 5.5
2018-Jul-12 02:00N 45°34' W 122°22'3 5.8
2018-Jul-12 01:30N 45°34' W 122°26'3 6.2
2018-Jul-12 01:00N 45°35' W 122°30'3 6.5
2018-Jul-12 00:30N 45°36' W 122°35'3 6.8
2018-Jul-11 23:59N 45°37' W 122°40'3 7.2
2018-Jul-11 23:30N 45°39' W 122°44'1 1.3
2018-Jul-11 23:01N 45°39' W 122°45'0 0.0
2018-Jul-11 22:30N 45°39' W 122°45'0 0.9
2018-Jul-11 22:01N 45°38' W 122°44'2 3.9
2018-Jul-11 21:30N 45°38' W 122°42'2 4.7
2018-Jul-11 21:00N 45°39' W 122°45'0 0.1
2018-Jul-11 20:30N 45°39' W 122°45'0 0.3
2018-Jul-11 20:00N 45°39' W 122°45'0 0.1
2018-Jul-11 19:31N 45°39' W 122°45'1 1.7
2018-Jul-11 19:00N 45°39' W 122°46'3 6.7
2018-Jul-11 18:30N 45°43' W 122°46'3 6.7
2018-Jul-11 18:00N 45°46' W 122°46'3 6.7
2018-Jul-11 17:31N 45°49' W 122°48'3 6.4
2018-Jul-11 17:00N 45°52' W 122°47'3 6.2
2018-Jul-11 16:30N 45°55' W 122°48'3 6.3
2018-Jul-11 16:00N 45°58' W 122°50'3 6.5
2018-Jul-11 15:30N 46°01' W 122°52'3 5.9
2018-Jul-11 15:01N 46°04' W 122°53'2 4.3
2018-Jul-11 14:30N 46°05' W 122°55'0 0.0
2018-Jul-11 14:00N 46°05' W 122°55'1 2.0
2018-Jul-11 13:30N 46°06' W 122°56'0 0.3
2018-Jul-11 13:00N 46°06' W 122°56'1 1.9
2018-Jul-11 12:30N 46°05' W 122°55'1 2.1
2018-Jul-11 12:01N 46°06' W 122°56'0 0.2
2018-Jul-11 11:30N 46°06' W 122°57'0 0.1
2018-Jul-11 11:00N 46°06' W 122°57'0 0.3
2018-Jul-11 10:19N 46°06' W 122°56'0 0.4
2018-Jul-11 10:00N 46°06' W 122°57'1 2.7
2018-Jul-11 09:31N 46°07' W 122°58'1 1.0
2018-Jul-11 09:00N 46°06' W 122°58'2 3.7
2018-Jul-11 08:31N 46°05' W 122°55'0 0.6
2018-Jul-11 08:00N 46°05' W 122°56'0 0.2
2018-Jul-11 07:30N 46°05' W 122°56'0 0.0
2018-Jul-11 06:59N 46°05' W 122°56'0 0.0
2018-Jul-11 06:30N 46°05' W 122°56'0 0.0
2018-Jul-11 06:01N 46°05' W 122°56'0 0.0
2018-Jul-11 05:30N 46°05' W 122°56'0 0.0
2018-Jul-11 05:00N 46°05' W 122°56'0 0.0
2018-Jul-11 04:30N 46°05' W 122°56'0 0.0
2018-Jul-11 04:00N 46°05' W 122°56'0 0.0
2018-Jul-11 03:31N 46°05' W 122°56'0 0.0
2018-Jul-11 03:00N 46°05' W 122°56'0 0.0
2018-Jul-11 02:30N 46°05' W 122°56'0 0.0
2018-Jul-11 02:00N 46°05' W 122°56'0 0.0
2018-Jul-11 01:31N 46°05' W 122°56'1 1.3
2018-Jul-11 01:01N 46°06' W 122°56'1 2.0
2018-Jul-11 00:30N 46°05' W 122°55'1 2.0
2018-Jul-11 00:01N 46°06' W 122°56'1 1.3
2018-Jul-10 23:30N 46°05' W 122°56'0 0.1
2018-Jul-10 23:00N 46°05' W 122°56'0 0.0
2018-Jul-10 22:30N 46°05' W 122°56'0 0.0
2018-Jul-10 22:00N 46°05' W 122°56'0 0.0
2018-Jul-10 21:30N 46°05' W 122°56'0 0.0
2018-Jul-10 21:00N 46°05' W 122°56'0 0.0
2018-Jul-10 20:30N 46°05' W 122°56'0 0.0
2018-Jul-10 20:01N 46°05' W 122°56'0 0.0
2018-Jul-10 19:30N 46°05' W 122°56'0 0.0
2018-Jul-10 19:00N 46°05' W 122°56'0 0.0
2018-Jul-10 18:30N 46°05' W 122°56'0 0.0
2018-Jul-10 18:01N 46°05' W 122°56'0 0.0
2018-Jul-10 17:30N 46°05' W 122°56'0 0.0
2018-Jul-10 17:00N 46°05' W 122°56'0 0.0
2018-Jul-10 16:11N 46°05' W 122°56'0 0.0
2018-Jul-10 16:01N 46°05' W 122°56'0 0.0
2018-Jul-10 15:30N 46°05' W 122°56'0 0.7
2018-Jul-10 15:00N 46°05' W 122°55'1 2.0
2018-Jul-10 14:30N 46°06' W 122°56'1 2.0
2018-Jul-10 14:00N 46°05' W 122°55'1 2.0
2018-Jul-10 13:30N 46°06' W 122°56'4 8.0
2018-Jul-10 13:00N 46°03' W 122°53'510.8
2018-Jul-10 12:31N 45°58' W 122°49'510.6
2018-Jul-10 12:00N 45°53' W 122°48'510.2
2018-Jul-10 11:31N 45°48' W 122°47'510.0
2018-Jul-10 10:59N 45°43' W 122°46'4 8.8
2018-Jul-10 10:30N 45°39' W 122°45'0 0.0
2018-Jul-10 09:55N 45°39' W 122°45'0 0.2
2018-Jul-10 09:26N 45°39' W 122°45'0 0.0
2018-Jul-10 09:00N 45°39' W 122°45'0 0.4
2018-Jul-10 08:30N 45°39' W 122°45'0 0.4
2018-Jul-10 07:51N 45°39' W 122°45'2 6.9
2018-Jul-10 07:30N 45°41' W 122°46'4 8.1
2018-Jul-10 06:59N 45°45' W 122°46'4 7.9
2018-Jul-10 06:30N 45°48' W 122°48'4 7.5
2018-Jul-10 06:01N 45°52' W 122°47'4 7.4
2018-Jul-10 05:30N 45°56' W 122°48'4 7.2
2018-Jul-10 05:00N 45°59' W 122°51'5 7.2
2018-Jul-10 04:15N 46°04' W 122°53'2 6.6
2018-Jul-10 04:00N 46°05' W 122°55'3 5.8
2018-Jul-10 03:30N 46°03' W 122°53'0 0.5
2018-Jul-10 03:00N 46°03' W 122°53'0 0.6
2018-Jul-10 02:30N 46°03' W 122°53'0 0.0
2018-Jul-10 02:00N 46°03' W 122°53'2 4.3
2018-Jul-10 01:30N 46°05' W 122°54'1 2.4
2018-Jul-10 01:00N 46°05' W 122°56'0 0.3
2018-Jul-10 00:30N 46°05' W 122°56'0 0.4
2018-Jul-10 00:00N 46°05' W 122°55'1 1.9
2018-Jul-09 23:30N 46°06' W 122°56'0 0.1
2018-Jul-09 23:00N 46°06' W 122°56'0 0.1
2018-Jul-09 22:30N 46°06' W 122°56'0 0.6
2018-Jul-09 22:01N 46°06' W 122°56'0 0.0
2018-Jul-09 21:07N 46°06' W 122°56'0 0.1
2018-Jul-09 21:00N 46°06' W 122°56'0 0.5
2018-Jul-09 20:30N 46°06' W 122°56'1 1.6
2018-Jul-09 20:00N 46°05' W 122°56'0 0.0
2018-Jul-09 19:31N 46°05' W 122°56'0 0.0
2018-Jul-09 19:01N 46°05' W 122°56'0 0.0
2018-Jul-09 18:30N 46°05' W 122°56'0 0.0
2018-Jul-09 18:01N 46°05' W 122°56'0 0.0
2018-Jul-09 17:30N 46°05' W 122°56'0 0.0
2018-Jul-09 17:00N 46°05' W 122°56'0 0.0
2018-Jul-09 16:30N 46°05' W 122°56'0 0.0
2018-Jul-09 16:00N 46°05' W 122°56'0 0.0
2018-Jul-09 15:30N 46°05' W 122°56'0 0.0
2018-Jul-09 15:00N 46°05' W 122°56'3 6.3
2018-Jul-09 14:30N 46°03' W 122°53'1 2.4
2018-Jul-09 14:00N 46°02' W 122°52'1 1.7
2018-Jul-09 13:30N 46°02' W 122°53'1 1.3
2018-Jul-09 13:00N 46°03' W 122°53'1 2.8
2018-Jul-09 12:30N 46°04' W 122°54'2 3.4
2018-Jul-09 12:00N 46°03' W 122°53'0 0.4
2018-Jul-09 11:31N 46°03' W 122°53'0 0.0
2018-Jul-09 11:00N 46°03' W 122°53'2 3.2
2018-Jul-09 10:30N 46°01' W 122°52'510.2
2018-Jul-09 10:00N 45°57' W 122°48'5 9.7
2018-Jul-09 09:31N 45°52' W 122°47'5 9.0
2018-Jul-09 09:01N 45°47' W 122°47'4 8.9
2018-Jul-09 08:30N 45°43' W 122°46'4 8.2
2018-Jul-09 08:00N 45°39' W 122°45'2 4.9
2018-Jul-09 07:31N 45°38' W 122°42'1 1.5
2018-Jul-09 06:59N 45°38' W 122°42'2 3.3
2018-Jul-09 06:30N 45°39' W 122°45'0 0.2
2018-Jul-09 06:00N 45°39' W 122°45'0 0.1
2018-Jul-09 05:25N 45°39' W 122°45'0 0.0
2018-Jul-09 05:01N 45°39' W 122°45'0 0.0
2018-Jul-09 04:20N 45°39' W 122°45'0 0.0
2018-Jul-09 04:00N 45°39' W 122°45'0 0.0
2018-Jul-09 03:30N 45°39' W 122°45'1 0.9
2018-Jul-09 02:54N 45°39' W 122°45'0 0.5
2018-Jul-09 02:30N 45°39' W 122°46'1 1.2
2018-Jul-09 02:00N 45°39' W 122°45'0 0.2
2018-Jul-09 01:30N 45°39' W 122°45'0 0.0
2018-Jul-09 01:01N 45°39' W 122°45'1 1.7
2018-Jul-09 00:30N 45°38' W 122°44'1 1.6
2018-Jul-09 00:00N 45°39' W 122°45'0 0.2
2018-Jul-08 23:30N 45°39' W 122°45'0 0.0
2018-Jul-08 23:00N 45°39' W 122°45'0 0.6
2018-Jul-08 22:30N 45°39' W 122°45'1 2.1
2018-Jul-08 22:00N 45°38' W 122°44'0 1.0
2018-Jul-08 21:31N 45°38' W 122°45'0 0.6
2018-Jul-08 21:00N 45°39' W 122°45'0 0.0
2018-Jul-08 20:30N 45°39' W 122°45'3 6.5
2018-Jul-08 20:00N 45°42' W 122°46'3 7.1
2018-Jul-08 19:30N 45°45' W 122°46'4 7.1
2018-Jul-08 19:00N 45°48' W 122°47'4 6.7
2018-Jul-08 18:21N 45°53' W 122°48'2 6.9
2018-Jul-08 18:00N 45°55' W 122°48'3 6.6
2018-Jul-08 17:31N 45°58' W 122°50'1 1.5
2018-Jul-08 17:00N 45°59' W 122°50'5 7.6
2018-Jul-08 16:25N 45°55' W 122°48'410.0
2018-Jul-08 16:00N 45°51' W 122°47'5 9.5
2018-Jul-08 15:30N 45°46' W 122°46'5 9.9
2018-Jul-08 15:00N 45°41' W 122°47'4 7.2
2018-Jul-08 14:30N 45°38' W 122°43'0 1.0
2018-Jul-08 14:00N 45°38' W 122°42'0 0.1
2018-Jul-08 13:30N 45°38' W 122°42'0 0.5
2018-Jul-08 13:00N 45°38' W 122°42'0 0.3
2018-Jul-08 12:30N 45°38' W 122°43'1 2.2
2018-Jul-08 11:50N 45°39' W 122°44'0 0.5
2018-Jul-08 11:23N 45°39' W 122°45'0 0.0
2018-Jul-08 11:00N 45°39' W 122°45'0 0.0
2018-Jul-08 10:30N 45°39' W 122°45'0 0.0
2018-Jul-08 10:00N 45°39' W 122°45'0 0.0
2018-Jul-08 09:31N 45°39' W 122°45'0 0.0
2018-Jul-08 09:00N 45°39' W 122°45'0 0.0
2018-Jul-08 08:31N 45°39' W 122°45'0 0.0
2018-Jul-08 08:00N 45°39' W 122°45'0 0.0
2018-Jul-08 07:31N 45°39' W 122°45'0 0.0
2018-Jul-08 06:59N 45°39' W 122°45'0 0.0
2018-Jul-08 06:31N 45°39' W 122°45'0 0.0
2018-Jul-08 06:00N 45°39' W 122°45'0 0.2
2018-Jul-08 05:30N 45°39' W 122°45'0 0.2
2018-Jul-08 05:00N 45°39' W 122°45'1 2.9
2018-Jul-08 04:30N 45°38' W 122°47'3 7.0
2018-Jul-08 04:00N 45°35' W 122°46'2 3.8
2018-Jul-08 03:30N 45°34' W 122°44'4 4.6
2018-Jul-08 02:43N 45°36' W 122°47'1 7.0
2018-Jul-08 02:30N 45°38' W 122°47'2 4.2
2018-Jul-08 02:00N 45°38' W 122°44'0 0.7
2018-Jul-08 01:31N 45°38' W 122°45'1 2.1
2018-Jul-08 01:00N 45°38' W 122°43'0 0.7
2018-Jul-08 00:30N 45°38' W 122°43'2 3.5
2018-Jul-08 00:01N 45°39' W 122°46'3 7.0
2018-Jul-07 23:30N 45°43' W 122°46'5 6.9
2018-Jul-07 22:44N 45°48' W 122°47'2 6.7
2018-Jul-07 22:26N 45°50' W 122°47'3 6.6
2018-Jul-07 22:01N 45°53' W 122°48'3 6.8
2018-Jul-07 21:31N 45°56' W 122°48'3 6.3
2018-Jul-07 21:00N 45°59' W 122°50'1 1.5
2018-Jul-07 20:30N 45°60' W 122°51'3 6.2
2018-Jul-07 20:00N 46°03' W 122°53'0 0.0
2018-Jul-07 19:31N 46°03' W 122°53'4 5.0
2018-Jul-07 18:48N 45°59' W 122°50'0 0.0
2018-Jul-07 18:31N 45°59' W 122°50'0 0.0
2018-Jul-07 18:01N 45°59' W 122°50'0 0.0
2018-Jul-07 17:30N 45°59' W 122°50'0 0.0
2018-Jul-07 17:01N 45°59' W 122°50'0 0.0
2018-Jul-07 16:31N 45°59' W 122°50'0 0.0
2018-Jul-07 15:56N 45°59' W 122°50'0 0.0
2018-Jul-07 15:30N 45°59' W 122°50'0 0.0
2018-Jul-07 15:00N 45°59' W 122°50'0 0.0
2018-Jul-07 14:30N 45°59' W 122°50'0 0.0
2018-Jul-07 14:01N 45°59' W 122°50'0 0.0
2018-Jul-07 12:48N 45°59' W 122°50'0 0.2
2018-Jul-07 12:30N 45°59' W 122°50'0 0.1
2018-Jul-07 12:00N 45°59' W 122°50'0 0.6
2018-Jul-07 11:30N 45°59' W 122°50'0 0.0
2018-Jul-07 11:01N 45°59' W 122°50'0 0.0
2018-Jul-07 10:30N 45°59' W 122°50'0 0.0
2018-Jul-07 10:00N 45°59' W 122°50'0 0.0
2018-Jul-07 09:30N 45°59' W 122°50'0 0.0
2018-Jul-07 09:01N 45°59' W 122°50'1 1.5
2018-Jul-07 08:30N 45°60' W 122°51'2 4.3
2018-Jul-07 08:00N 46°02' W 122°52'0 0.1
2018-Jul-07 07:30N 46°02' W 122°52'0 0.1
2018-Jul-07 06:59N 46°02' W 122°52'0 0.1
2018-Jul-07 06:31N 46°02' W 122°52'0 0.0
2018-Jul-07 06:00N 46°02' W 122°52'0 0.1
2018-Jul-07 05:31N 46°02' W 122°52'0 0.1
2018-Jul-07 05:01N 46°02' W 122°52'0 0.4
2018-Jul-07 04:30N 46°02' W 122°52'  

Dump ship's entire track history